Flight Track Log - Related Links

Times and Time Zones

All times are in EDT time to prevent confusion due to time zone crossing. See the CUA2970 flight status page for this flight to view local times or setup timezone preferences in your user account.

Time Position Orientation Groundspeed Altitude Reporting Facility
EDT Latitude Longitude Course Direction KTS MPH feet Rate Location/Type
Fri 09:29:00 AM 48.7649 119.3231 217° Southwest  Level Estimated
Fri 09:30:00 AM 48.6914 119.2403 217° Southwest  Level Estimated
Fri 09:31:00 AM 48.6178 119.1578 217° Southwest  Level Estimated
Fri 09:32:00 AM 48.5441 119.0755 216° Southwest  Level Estimated
Fri 09:33:00 AM 48.4704 118.9934 216° Southwest  Level Estimated
Fri 09:34:00 AM 48.3966 118.9116 216° Southwest  Level Estimated
Fri 09:35:00 AM 48.3227 118.8300 216° Southwest  Level Estimated
Fri 09:36:00 AM 48.2488 118.7487 216° Southwest  Level Estimated
Fri 09:37:00 AM 48.1749 118.6675 216° Southwest  Level Estimated
Fri 09:38:00 AM 48.1009 118.5866 216° Southwest  Level Estimated
Fri 09:39:00 AM 48.0268 118.5060 216° Southwest  Level Estimated
Fri 09:40:00 AM 47.9526 118.4256 216° Southwest  Level Estimated
Fri 09:41:00 AM 47.8785 118.3454 216° Southwest  Level Estimated
Fri 09:42:00 AM 47.8042 118.2654 216° Southwest  Level Estimated
Fri 09:43:00 AM 47.7299 118.1857 216° Southwest  Level Estimated
Fri 09:44:00 AM 47.6556 118.1062 216° Southwest  Level Estimated
Fri 09:45:00 AM 47.5812 118.0269 216° Southwest  Level Estimated
Fri 09:46:00 AM 47.5067 117.9479 216° Southwest  Level Estimated
Fri 09:47:00 AM 47.4322 117.8690 216° Southwest  Level Estimated
Fri 09:48:00 AM 47.3576 117.7904 216° Southwest  Level Estimated
Fri 09:49:00 AM 47.2830 117.7120 215° Southwest  Level Estimated
Fri 09:50:00 AM 47.2083 117.6339 215° Southwest  Level Estimated
Fri 09:51:00 AM 47.1336 117.5559 215° Southwest  Level Estimated
Fri 09:52:00 AM 47.0588 117.4782 215° Southwest  Level Estimated
Fri 09:53:00 AM 46.9840 117.4007 215° Southwest  Level Estimated
Fri 09:54:00 AM 46.9091 117.3234 215° Southwest  Level Estimated
Fri 09:55:00 AM 46.8341 117.2463 215° Southwest  Level Estimated
Fri 09:56:00 AM 46.7592 117.1694 215° Southwest  Level Estimated
Fri 09:57:00 AM 46.6841 117.0928 215° Southwest  Level Estimated
Fri 09:58:00 AM 46.6090 117.0164 215° Southwest  Level Estimated
Fri 09:59:00 AM 46.5339 116.9401 215° Southwest  Level Estimated
Fri 10:00:00 AM 46.4587 116.8641 215° Southwest  Level Estimated
Fri 10:01:00 AM 46.3834 116.7883 215° Southwest  Level Estimated
Fri 10:02:00 AM 46.3082 116.7127 215° Southwest  Level Estimated
Fri 10:03:00 AM 46.2328 116.6374 215° Southwest  Level Estimated
Fri 10:04:00 AM 46.1574 116.5622 215° Southwest  Level Estimated
Fri 10:05:00 AM 46.0820 116.4872 215° Southwest  Level Estimated
Fri 10:06:00 AM 46.0065 116.4124 215° Southwest  Level Estimated
Fri 10:07:00 AM 45.9309 116.3379 214° Southwest  Level Estimated
Fri 10:08:00 AM 45.8554 116.2635 214° Southwest  Level Estimated
Fri 10:09:00 AM 45.7797 116.1893 214° Southwest  Level Estimated
Fri 10:10:00 AM 45.7040 116.1154 214° Southwest  Level Estimated
Fri 10:11:00 AM 45.6283 116.0416 214° Southwest  Level Estimated
Fri 10:12:00 AM 45.5525 115.9681 214° Southwest  Level Estimated
Fri 10:13:00 AM 45.4767 115.8947 214° Southwest  Level Estimated
Fri 10:14:00 AM 45.4008 115.8215 214° Southwest  Level Estimated
Fri 10:15:00 AM 45.3249 115.7486 214° Southwest  Level Estimated
Fri 10:16:00 AM 45.2489 115.6758 214° Southwest  Level Estimated
Fri 10:17:00 AM 45.1729 115.6032 214° Southwest  Level Estimated
Fri 10:18:00 AM 45.0969 115.5308 214° Southwest  Level Estimated
Fri 10:19:00 AM 45.0208 115.4586 214° Southwest  Level Estimated
Fri 10:20:00 AM 44.9446 115.3866 214° Southwest  Level Estimated
Fri 10:21:00 AM 44.8684 115.3148 214° Southwest  Level Estimated
Fri 10:22:00 AM 44.7922 115.2432 214° Southwest  Level Estimated
Fri 10:23:00 AM 44.7159 115.1718 214° Southwest  Level Estimated
Fri 10:24:00 AM 44.6396 115.1005 214° Southwest  Level Estimated
Fri 10:25:00 AM 44.5632 115.0295 214° Southwest  Level Estimated
Fri 10:26:00 AM 44.4868 114.9586 213° Southwest  Level Estimated
Fri 10:27:00 AM 44.4103 114.8879 213° Southwest  Level Estimated
Fri 10:28:00 AM 44.3338 114.8174 213° Southwest  Level Estimated
Fri 10:29:00 AM 44.2573 114.7471 213° Southwest  Level Estimated
Fri 10:30:00 AM 44.1807 114.6770 213° Southwest  Level Estimated
Fri 10:31:00 AM 44.1041 114.6070 213° Southwest  Level Estimated
Fri 10:32:00 AM 44.0274 114.5373 213° Southwest  Level Estimated
Fri 10:33:00 AM 43.9507 114.4677 213° Southwest  Level Estimated
Fri 10:34:00 AM 43.8739 114.3983 213° Southwest  Level Estimated
Fri 10:35:00 AM 43.7971 114.3290 213° Southwest  Level Estimated
Fri 10:36:00 AM 43.7203 114.2600 213° Southwest  Level Estimated
Fri 10:37:00 AM 43.6434 114.1911 213° Southwest  Level Estimated
Fri 10:38:00 AM 43.5664 114.1224 213° Southwest  Level Estimated
Fri 10:39:00 AM 43.4895 114.0539 213° Southwest  Level Estimated
Fri 10:40:00 AM 43.4125 113.9855 213° Southwest  Level Estimated
Fri 10:41:00 AM 43.3354 113.9174 213° Southwest  Level Estimated
Fri 10:42:00 AM 43.2583 113.8494 213° Southwest  Level Estimated
Fri 10:43:00 AM 43.1812 113.7815 213° Southwest  Level Estimated
Fri 10:44:00 AM 43.1040 113.7139 213° Southwest  Level Estimated
Fri 10:45:00 AM 43.0268 113.6464 213° Southwest  Level Estimated
Fri 10:46:00 AM 42.9496 113.5790 213° Southwest  Level Estimated
Fri 10:47:00 AM 42.8723 113.5119 212° Southwest  Level Estimated
Fri 10:48:00 AM 42.7950 113.4449 212° Southwest  Level Estimated
Fri 10:49:00 AM 42.7176 113.3781 212° Southwest  Level Estimated
Fri 10:50:00 AM 42.6402 113.3114 212° Southwest  Level Estimated
Fri 10:51:00 AM 42.5628 113.2450 212° Southwest  Level Estimated
Fri 10:52:00 AM 42.4853 113.1786 212° Southwest  Level Estimated
Fri 10:53:00 AM 42.4078 113.1125 212° Southwest  Level Estimated
Fri 10:54:00 AM 42.3302 113.0465 212° Southwest  Level Estimated
Fri 10:55:00 AM 42.2526 112.9807 212° Southwest  Level Estimated
Fri 10:56:00 AM 42.1750 112.9150 212° Southwest  Level Estimated
Fri 10:57:00 AM 42.0973 112.8495 212° Southwest  Level Estimated
Fri 10:58:00 AM 42.0196 112.7841 212° Southwest  Level Estimated
Fri 10:59:00 AM 41.9419 112.7190 212° Southwest  Level Estimated
Fri 11:00:00 AM 41.8641 112.6539 212° Southwest  Level Estimated
Fri 11:01:00 AM 41.7863 112.5891 212° Southwest  Level Estimated
Fri 11:02:00 AM 41.7084 112.5244 212° Southwest  Level Estimated
Fri 11:03:00 AM 41.6305 112.4598 212° Southwest  Level Estimated
Fri 11:04:00 AM 41.5566 112.3987 212° Southwest  Level Estimated
Fri 11:05:00 AM 41.4827 112.3378 212° Southwest  Level Estimated
Fri 11:06:00 AM 41.4087 112.2770 212° Southwest  Level Estimated
Fri 11:07:00 AM 41.3348 112.2163 212° Southwest  Level Estimated
Fri 11:08:00 AM 41.2607 112.1558 212° Southwest  Level Estimated
Fri 11:09:00 AM 41.1867 112.0954 212° Southwest  Level Estimated
Fri 11:10:00 AM 41.1126 112.0352 211° Southwest  Level Estimated
Fri 11:11:00 AM 41.0385 111.9751 211° Southwest  Level Estimated
Fri 11:12:00 AM 40.9643 111.9151 211° Southwest  Level Estimated
Fri 11:13:00 AM 40.8901 111.8553 211° Southwest  Level Estimated
Fri 11:14:00 AM 40.8514 111.8241 211° Southwest  Level Estimated
Fri 11:15:00 AM 40.8514 111.8241 North  Level Estimated
Fri 11:16:00 AM 40.8514 111.8241 North  Level Estimated
Fri 11:17:00 AM 40.8514 111.8241 North  Level Estimated
Fri 11:18:00 AM 40.8514 111.8241 North  Level Estimated
Fri 11:19:00 AM 40.8514 111.8241 North  Level Estimated
Fri 11:20:00 AM 40.8514 111.8241 North  Level Estimated
Fri 11:21:00 AM 40.8514 111.8241 North  Level Estimated
Fri 11:22:00 AM 40.8514 111.8241 North  Level Estimated

Login

Don't have an account? Register now (free) for customized features, flight alerts, and more!